createdAt,value
2023-05-19T00:02:25.918Z,8.30
2023-05-19T00:04:53.144Z,6.35
2023-05-19T00:07:22.521Z,8.05
2023-05-19T00:09:49.540Z,7.63
2023-05-19T00:12:16.637Z,10.05
2023-05-19T00:14:43.665Z,9.57
2023-05-19T00:17:10.646Z,7.85
2023-05-19T00:19:38.048Z,8.55
2023-05-19T00:22:05.360Z,7.28
2023-05-19T00:24:32.465Z,6.65
2023-05-19T00:26:59.158Z,10.52
2023-05-19T00:29:25.906Z,8.00
2023-05-19T00:31:52.684Z,12.70
2023-05-19T00:34:19.676Z,10.73
2023-05-19T00:36:46.456Z,7.57
2023-05-19T00:39:14.174Z,7.93
2023-05-19T00:41:41.704Z,11.98
2023-05-19T00:44:08.573Z,7.85
2023-05-19T00:46:35.666Z,12.38
2023-05-19T00:49:02.500Z,6.65
2023-05-19T00:51:29.791Z,7.55
2023-05-19T00:53:57.700Z,10.02
2023-05-19T00:56:24.422Z,7.30
2023-05-19T00:58:51.848Z,6.75
2023-05-19T01:01:21.294Z,9.65
2023-05-19T01:03:48.595Z,9.75
2023-05-19T01:06:15.690Z,11.75
2023-05-19T01:08:42.505Z,7.13
2023-05-19T01:11:10.307Z,10.75
2023-05-19T01:13:39.113Z,14.30
2023-05-19T01:16:33.760Z,8.60
2023-05-19T01:19:31.986Z,7.38
2023-05-19T01:22:27.451Z,8.27
2023-05-19T01:25:23.177Z,8.98
2023-05-19T01:28:11.590Z,8.93
2023-05-19T01:30:43.124Z,11.52
2023-05-19T01:33:14.204Z,9.45
2023-05-19T01:35:43.478Z,11.25
2023-05-19T01:38:12.723Z,7.95
2023-05-19T01:40:41.891Z,8.73
2023-05-19T01:43:12.839Z,11.15
2023-05-19T01:45:40.419Z,7.18
2023-05-19T01:48:10.631Z,6.82
2023-05-19T01:50:39.341Z,9.50
2023-05-19T01:53:06.347Z,8.88
2023-05-19T01:55:51.260Z,11.50
2023-05-19T01:58:47.354Z,10.45
2023-05-19T02:01:37.013Z,13.02
2023-05-19T02:04:18.617Z,8.93
2023-05-19T02:06:48.878Z,12.20
2023-05-19T02:09:37.457Z,13.15
2023-05-19T02:12:22.634Z,12.23
2023-05-19T02:14:54.767Z,7.10
2023-05-19T02:17:23.291Z,9.82
2023-05-19T02:19:51.401Z,13.43
2023-05-19T02:22:18.133Z,9.85
2023-05-19T02:24:46.535Z,11.00
2023-05-19T02:27:13.392Z,10.38
2023-05-19T02:29:40.161Z,12.20
2023-05-19T02:32:07.456Z,9.07
2023-05-19T02:34:34.249Z,9.32
2023-05-19T02:37:01.274Z,9.10
2023-05-19T02:39:30.159Z,10.00
2023-05-19T02:41:56.874Z,12.40
2023-05-19T02:44:23.591Z,8.77
2023-05-19T02:46:50.925Z,7.65
2023-05-19T02:49:18.009Z,9.82
2023-05-19T02:51:44.752Z,6.63
2023-05-19T02:54:11.630Z,8.70
2023-05-19T02:56:38.416Z,7.78
2023-05-19T02:59:06.252Z,8.50
2023-05-19T03:01:33.718Z,10.50
2023-05-19T03:04:00.775Z,8.93
2023-05-19T03:06:28.202Z,8.35
2023-05-19T03:08:54.953Z,10.07
2023-05-19T03:11:23.221Z,12.15
2023-05-19T03:13:50.054Z,8.27
2023-05-19T03:16:16.887Z,8.35
2023-05-19T03:18:43.664Z,9.25
2023-05-19T03:21:10.613Z,9.00
2023-05-19T03:23:37.316Z,7.53
2023-05-19T03:26:05.088Z,10.55
2023-05-19T03:28:32.022Z,9.02
2023-05-19T03:30:58.792Z,11.82
2023-05-19T03:33:29.907Z,6.95
2023-05-19T03:35:57.451Z,12.07
2023-05-19T03:38:24.353Z,9.93
2023-05-19T03:40:56.460Z,8.45
2023-05-19T03:43:23.466Z,8.52
2023-05-19T03:45:56.774Z,9.48
2023-05-19T03:48:46.172Z,7.25
2023-05-19T03:51:31.326Z,10.68
2023-05-19T03:54:08.400Z,9.43
2023-05-19T03:56:39.274Z,11.43
2023-05-19T04:01:36.561Z,10.13
2023-05-19T04:04:03.558Z,8.68
2023-05-19T04:06:31.487Z,8.65
2023-05-19T04:08:59.064Z,9.77
2023-05-19T04:11:25.818Z,9.88
2023-05-19T04:13:52.498Z,11.25
2023-05-19T04:16:19.380Z,11.73
2023-05-19T04:18:46.441Z,13.13
2023-05-19T04:21:13.351Z,17.85
2023-05-19T04:23:40.144Z,10.32
2023-05-19T04:26:06.969Z,8.48
2023-05-19T04:28:36.713Z,13.38
2023-05-19T04:31:03.553Z,12.25
2023-05-19T04:33:30.383Z,10.52
2023-05-19T04:35:58.381Z,12.57
2023-05-19T04:38:25.181Z,11.75
2023-05-19T04:40:52.477Z,17.33
2023-05-19T04:43:19.392Z,14.05
2023-05-19T04:45:47.325Z,10.63
2023-05-19T04:48:15.238Z,13.73
2023-05-19T04:50:48.670Z,13.50
2023-05-19T04:53:15.983Z,17.05
2023-05-19T04:55:42.859Z,15.88
2023-05-19T04:58:09.774Z,11.75
2023-05-19T05:00:39.869Z,11.30
2023-05-19T05:03:08.952Z,13.10
2023-05-19T05:05:36.151Z,15.30
2023-05-19T05:08:03.248Z,15.50
2023-05-19T05:10:35.288Z,12.57
2023-05-19T05:13:02.413Z,13.52
2023-05-19T05:15:30.326Z,12.70
2023-05-19T05:18:00.312Z,13.52
2023-05-19T05:20:27.559Z,14.20
2023-05-19T05:22:54.668Z,11.68
2023-05-19T05:25:22.828Z,13.98
2023-05-19T05:27:50.280Z,15.63
2023-05-19T05:30:17.065Z,12.05
2023-05-19T05:32:44.400Z,15.30
2023-05-19T05:35:24.259Z,10.38
2023-05-19T05:37:51.316Z,12.15
2023-05-19T05:40:18.399Z,12.63
2023-05-19T05:42:45.553Z,14.05
2023-05-19T05:45:12.321Z,14.57
2023-05-19T05:47:41.325Z,12.27
2023-05-19T05:50:10.110Z,10.32
2023-05-19T05:52:37.624Z,10.88
2023-05-19T05:55:05.887Z,11.70
2023-05-19T05:57:36.807Z,11.63
2023-05-19T06:00:15.243Z,12.55
2023-05-19T06:02:50.659Z,10.07
2023-05-19T06:05:19.173Z,14.00
2023-05-19T06:07:47.442Z,14.65
2023-05-19T06:10:19.675Z,11.25
2023-05-19T06:12:47.997Z,10.93
2023-05-19T06:15:15.499Z,10.68
2023-05-19T06:17:51.079Z,12.57
2023-05-19T06:20:19.881Z,11.02
2023-05-19T06:22:46.603Z,11.88
2023-05-19T06:25:17.146Z,12.02
2023-05-19T06:27:44.412Z,8.30
2023-05-19T06:30:11.868Z,10.07
2023-05-19T06:32:49.342Z,10.45
2023-05-19T06:35:18.997Z,13.10
2023-05-19T06:37:45.873Z,8.65
2023-05-19T06:40:13.205Z,10.63
2023-05-19T06:42:42.001Z,6.15
2023-05-19T06:45:27.064Z,11.95
2023-05-19T06:47:55.560Z,9.80
2023-05-19T06:50:22.489Z,7.93
2023-05-19T06:52:50.651Z,11.43
2023-05-19T06:55:18.256Z,9.52
2023-05-19T06:57:45.137Z,11.70
2023-05-19T07:00:17.809Z,11.38
2023-05-19T07:02:47.788Z,9.55
2023-05-19T07:05:16.062Z,12.57
2023-05-19T07:07:46.475Z,11.68
2023-05-19T07:10:17.341Z,11.90
2023-05-19T07:12:44.879Z,13.98
2023-05-19T07:15:12.339Z,9.30
2023-05-19T07:17:39.190Z,9.48
2023-05-19T07:20:06.869Z,9.98
2023-05-19T07:22:36.579Z,9.32
2023-05-19T07:25:03.485Z,11.75
2023-05-19T07:27:30.585Z,12.98
2023-05-19T07:29:57.521Z,9.55
2023-05-19T07:32:24.460Z,6.88
2023-05-19T07:34:51.309Z,6.72
2023-05-19T07:37:18.112Z,7.75
2023-05-19T07:39:44.875Z,10.25
2023-05-19T07:42:11.724Z,13.30
2023-05-19T07:44:38.502Z,7.75
2023-05-19T07:47:05.859Z,11.52
2023-05-19T07:49:32.685Z,7.43
2023-05-19T07:51:59.428Z,7.10
2023-05-19T07:54:26.160Z,7.65
2023-05-19T07:56:52.903Z,7.18
2023-05-19T07:59:19.640Z,6.05
2023-05-19T08:01:46.457Z,8.07
2023-05-19T08:04:13.479Z,9.40
2023-05-19T08:06:42.576Z,9.45
2023-05-19T08:09:09.556Z,8.25
2023-05-19T08:11:36.935Z,9.48
2023-05-19T08:14:04.019Z,10.23
2023-05-19T08:16:31.047Z,7.82
2023-05-19T08:18:57.896Z,6.38
2023-05-19T08:21:24.673Z,8.25
2023-05-19T08:23:51.901Z,3.78
2023-05-19T08:26:18.628Z,8.00
2023-05-19T08:28:45.357Z,7.72
2023-05-19T08:31:12.064Z,6.32
2023-05-19T08:33:38.935Z,6.05
2023-05-19T08:36:06.515Z,7.68
2023-05-19T08:38:33.295Z,5.20
2023-05-19T08:41:00.152Z,6.30
2023-05-19T08:43:27.276Z,6.70
2023-05-19T08:45:55.510Z,6.18
2023-05-19T08:48:22.579Z,8.45
2023-05-19T08:51:17.842Z,4.47
2023-05-19T08:53:50.278Z,6.22
2023-05-19T08:56:21.946Z,6.78
2023-05-19T08:58:50.788Z,7.37
2023-05-19T09:01:19.333Z,8.77
2023-05-19T09:03:47.114Z,6.45
2023-05-19T09:06:13.971Z,8.48
2023-05-19T09:08:42.125Z,4.78
2023-05-19T09:11:12.075Z,7.18
2023-05-19T09:13:39.451Z,6.43
2023-05-19T09:16:06.588Z,3.70
2023-05-19T09:18:33.572Z,6.35
2023-05-19T09:21:03.066Z,5.30
2023-05-19T09:23:33.491Z,7.88
2023-05-19T09:26:07.449Z,4.45
2023-05-19T09:28:36.357Z,7.20
2023-05-19T09:31:04.896Z,5.18
2023-05-19T09:33:35.644Z,6.82
2023-05-19T09:36:03.481Z,9.65
2023-05-19T09:38:30.248Z,9.45
2023-05-19T09:40:58.387Z,5.75
2023-05-19T09:43:28.658Z,8.10
2023-05-19T09:46:06.682Z,4.40
2023-05-19T09:48:34.658Z,8.02
2023-05-19T09:51:02.325Z,7.03
2023-05-19T09:53:34.036Z,6.55
2023-05-19T09:56:02.255Z,6.88
2023-05-19T09:58:36.675Z,7.05
2023-05-19T10:01:04.980Z,6.25
2023-05-19T10:03:35.404Z,6.20
2023-05-19T10:06:03.867Z,6.55
2023-05-19T10:08:31.776Z,7.18
2023-05-19T10:10:59.058Z,7.35
2023-05-19T10:13:26.935Z,6.47
2023-05-19T10:15:58.610Z,7.57
2023-05-19T10:18:27.651Z,10.57
2023-05-19T10:20:55.194Z,6.50
2023-05-19T10:23:22.375Z,4.57
2023-05-19T10:25:51.320Z,6.55
2023-05-19T10:28:21.051Z,6.30
2023-05-19T10:30:50.934Z,7.07
2023-05-19T10:33:19.925Z,7.00
2023-05-19T10:36:25.107Z,7.40
2023-05-19T10:39:05.384Z,6.63
2023-05-19T10:41:50.851Z,6.07
2023-05-19T10:44:35.265Z,7.88
2023-05-19T10:47:02.145Z,6.28
2023-05-19T10:49:29.007Z,5.47
2023-05-19T10:51:58.679Z,8.13
2023-05-19T10:54:46.237Z,4.82
2023-05-19T10:57:17.214Z,5.78
2023-05-19T10:59:47.184Z,5.88
2023-05-19T11:02:40.091Z,7.40
2023-05-19T11:05:15.018Z,4.88
2023-05-19T11:07:44.355Z,5.63
2023-05-19T11:10:11.469Z,6.82
2023-05-19T11:12:43.315Z,6.68
2023-05-19T11:15:13.445Z,5.38
2023-05-19T11:17:43.569Z,6.05
2023-05-19T11:20:27.498Z,4.30
2023-05-19T11:23:02.173Z,7.25
2023-05-19T11:25:49.016Z,3.83
2023-05-19T11:28:19.321Z,7.35
2023-05-19T11:30:51.664Z,5.45
2023-05-19T11:33:20.419Z,7.30
2023-05-19T11:35:49.390Z,4.47
2023-05-19T11:38:18.544Z,7.88
2023-05-19T11:40:45.417Z,6.53
2023-05-19T11:43:12.193Z,5.10
2023-05-19T11:45:39.467Z,6.90
2023-05-19T11:48:06.806Z,4.82
2023-05-19T11:50:33.742Z,5.75
2023-05-19T11:53:01.676Z,4.15
2023-05-19T11:55:29.382Z,6.80
2023-05-19T11:58:04.679Z,6.97
2023-05-19T12:00:39.977Z,8.05
2023-05-19T12:03:07.844Z,6.57
2023-05-19T12:05:42.050Z,5.55
2023-05-19T12:08:11.539Z,5.20
2023-05-19T12:10:39.883Z,5.93
2023-05-19T12:13:10.283Z,6.00
2023-05-19T12:15:37.946Z,9.10
2023-05-19T12:18:04.884Z,7.35
2023-05-19T12:20:32.725Z,8.45
2023-05-19T12:23:01.163Z,6.78
2023-05-19T12:25:29.702Z,4.82
2023-05-19T12:28:00.369Z,5.95
2023-05-19T12:30:31.123Z,4.75
2023-05-19T12:32:58.659Z,4.13
2023-05-19T12:35:30.237Z,5.85
2023-05-19T12:37:57.716Z,4.97
2023-05-19T12:40:26.161Z,5.05
2023-05-19T12:42:58.711Z,4.82
2023-05-19T12:45:27.813Z,5.18
2023-05-19T12:47:54.810Z,4.95
2023-05-19T12:50:21.651Z,5.82
2023-05-19T12:52:53.251Z,4.90
2023-05-19T12:55:20.868Z,5.35
2023-05-19T12:57:57.892Z,4.85
2023-05-19T13:00:31.118Z,4.45
2023-05-19T13:03:00.051Z,7.85
2023-05-19T13:05:29.022Z,5.63
2023-05-19T13:08:00.743Z,2.80
2023-05-19T13:10:28.363Z,4.60
2023-05-19T13:12:56.159Z,5.20
2023-05-19T13:15:26.623Z,6.63
2023-05-19T13:17:54.591Z,5.32
2023-05-19T13:20:21.731Z,4.70
2023-05-19T13:22:49.028Z,5.28
2023-05-19T13:25:16.354Z,3.00
2023-05-19T13:27:44.520Z,7.38
2023-05-19T13:30:11.856Z,6.78
2023-05-19T13:32:38.703Z,4.97
2023-05-19T13:35:06.045Z,4.90
2023-05-19T13:37:32.910Z,6.03
2023-05-19T13:39:59.741Z,8.05
2023-05-19T13:42:26.690Z,5.88
2023-05-19T13:44:56.714Z,4.30
2023-05-19T13:47:24.020Z,4.65
2023-05-19T13:49:51.830Z,7.15
2023-05-19T13:52:20.723Z,4.80
2023-05-19T13:54:48.531Z,12.40
2023-05-19T13:57:16.372Z,7.05
2023-05-19T14:00:00.130Z,3.90
2023-05-19T14:02:28.368Z,3.80
2023-05-19T14:04:55.873Z,5.55
2023-05-19T14:07:22.634Z,6.57
2023-05-19T14:09:51.064Z,3.97
2023-05-19T14:12:17.911Z,3.20
2023-05-19T14:14:45.031Z,6.05
2023-05-19T14:17:12.193Z,4.95
2023-05-19T14:19:38.970Z,5.05
2023-05-19T14:22:05.947Z,4.22
2023-05-19T14:24:32.685Z,4.82
2023-05-19T14:26:59.397Z,7.35
2023-05-19T14:29:26.541Z,5.47
2023-05-19T14:31:53.382Z,6.35
2023-05-19T14:34:21.155Z,5.40
2023-05-19T14:36:48.758Z,5.28
2023-05-19T14:39:15.770Z,6.03
2023-05-19T14:41:42.540Z,2.75
2023-05-19T14:44:09.278Z,5.35
2023-05-19T14:46:36.226Z,5.00
2023-05-19T14:49:03.476Z,5.18
2023-05-19T14:51:30.225Z,3.75
2023-05-19T14:53:57.032Z,4.75
2023-05-19T14:56:23.753Z,5.80
2023-05-19T14:58:50.428Z,4.65
2023-05-19T15:01:17.157Z,2.95
2023-05-19T15:03:43.925Z,5.50
2023-05-19T15:06:11.748Z,6.60
2023-05-19T15:08:40.553Z,6.28
2023-05-19T15:11:07.823Z,5.30
2023-05-19T15:13:34.616Z,3.83
2023-05-19T15:16:16.370Z,4.00
2023-05-19T15:18:44.398Z,4.13
2023-05-19T15:21:11.242Z,3.67
2023-05-19T15:23:37.950Z,3.28
2023-05-19T15:26:05.154Z,7.28
2023-05-19T15:28:32.258Z,3.83
2023-05-19T15:30:59.035Z,6.80
2023-05-19T15:33:25.912Z,5.05
2023-05-19T15:35:52.708Z,4.75
2023-05-19T15:38:19.922Z,6.05
2023-05-19T15:40:46.912Z,5.65
2023-05-19T15:43:14.154Z,7.72
2023-05-19T15:45:40.971Z,3.20
2023-05-19T15:48:08.382Z,3.75
2023-05-19T15:50:36.064Z,5.07
2023-05-19T15:53:03.358Z,2.25
2023-05-19T15:55:30.153Z,4.75
2023-05-19T15:57:56.944Z,5.07
2023-05-19T16:00:23.735Z,6.78
2023-05-19T16:02:50.651Z,4.72
2023-05-19T16:05:17.908Z,3.45
2023-05-19T16:07:44.995Z,5.75
2023-05-19T16:10:11.924Z,4.72
2023-05-19T16:12:38.721Z,5.45
2023-05-19T16:15:05.935Z,5.95
2023-05-19T16:17:32.756Z,9.40
2023-05-19T16:19:59.490Z,2.63
2023-05-19T16:22:27.128Z,3.25
2023-05-19T16:24:53.920Z,3.10
2023-05-19T16:27:20.717Z,2.85
2023-05-19T16:29:47.408Z,2.83
2023-05-19T16:32:14.225Z,4.10
2023-05-19T16:34:41.025Z,2.78
2023-05-19T16:37:07.808Z,3.03
2023-05-19T16:39:37.161Z,2.72
2023-05-19T16:42:04.662Z,3.05
2023-05-19T16:44:31.582Z,4.22
2023-05-19T16:46:58.372Z,3.42
2023-05-19T16:49:25.156Z,4.15
2023-05-19T16:51:53.072Z,4.63
2023-05-19T16:54:21.125Z,3.83
2023-05-19T16:56:47.905Z,2.38
2023-05-19T16:59:14.734Z,2.55
2023-05-19T17:01:41.719Z,4.55
2023-05-19T17:04:08.810Z,3.10
2023-05-19T17:06:35.888Z,4.55
2023-05-19T17:09:02.764Z,2.50
2023-05-19T17:11:29.557Z,3.22
2023-05-19T17:13:56.410Z,3.78
2023-05-19T17:16:23.752Z,2.40
2023-05-19T17:18:51.077Z,3.50
2023-05-19T17:21:17.971Z,7.68
2023-05-19T17:23:44.698Z,5.35
2023-05-19T17:26:11.542Z,6.40
2023-05-19T17:28:38.269Z,3.10
2023-05-19T17:31:14.991Z,2.88
2023-05-19T17:33:41.917Z,2.00
2023-05-19T17:36:09.479Z,4.18
2023-05-19T17:38:40.131Z,5.57
2023-05-19T17:41:10.671Z,2.25
2023-05-19T17:43:38.051Z,4.05
2023-05-19T17:46:05.121Z,4.38
2023-05-19T17:48:32.486Z,2.00
2023-05-19T17:50:59.413Z,5.63
2023-05-19T17:53:26.859Z,4.90
2023-05-19T17:55:58.672Z,2.60
2023-05-19T17:58:26.093Z,3.60
2023-05-19T18:00:54.034Z,3.60
2023-05-19T18:03:21.887Z,4.78
2023-05-19T18:05:50.056Z,7.63
2023-05-19T18:08:17.651Z,4.85
2023-05-19T18:10:45.938Z,8.73
2023-05-19T18:13:15.961Z,5.68
2023-05-19T18:15:42.845Z,2.88
2023-05-19T18:18:10.878Z,2.25
2023-05-19T18:20:38.712Z,6.55
2023-05-19T18:23:05.956Z,5.78
2023-05-19T18:25:32.678Z,4.25
2023-05-19T18:27:59.367Z,2.38
2023-05-19T18:30:26.554Z,3.80
2023-05-19T18:32:53.227Z,3.40
2023-05-19T18:35:21.287Z,3.50
2023-05-19T18:37:48.090Z,3.78
2023-05-19T18:40:14.810Z,4.63
2023-05-19T18:42:41.602Z,7.13
2023-05-19T18:45:08.679Z,6.88
2023-05-19T18:47:35.618Z,12.40
2023-05-19T18:50:02.378Z,6.40
2023-05-19T18:52:30.716Z,7.45
2023-05-19T18:54:57.500Z,7.47
2023-05-19T18:57:24.203Z,8.80
2023-05-19T18:59:50.957Z,5.93
2023-05-19T19:02:17.677Z,4.85
2023-05-19T19:04:45.282Z,8.57
2023-05-19T19:07:12.199Z,7.97
2023-05-19T19:09:39.446Z,9.10
2023-05-19T19:12:06.753Z,11.57
2023-05-19T19:14:33.687Z,8.50
2023-05-19T19:17:00.578Z,5.80
2023-05-19T19:19:29.788Z,11.05
2023-05-19T19:21:56.996Z,5.15
2023-05-19T19:24:23.752Z,15.98
2023-05-19T19:26:50.469Z,7.60
2023-05-19T19:29:18.191Z,9.20
2023-05-19T19:31:45.152Z,5.82
2023-05-19T19:34:12.058Z,6.57
2023-05-19T19:36:38.882Z,5.78
2023-05-19T19:39:05.653Z,8.27
2023-05-19T19:41:33.332Z,6.07
2023-05-19T19:44:00.181Z,8.60
2023-05-19T19:46:26.931Z,7.97
2023-05-19T19:48:57.228Z,2.30
2023-05-19T19:51:23.989Z,12.32
2023-05-19T19:53:50.720Z,8.20
2023-05-19T19:56:17.493Z,6.22
2023-05-19T19:58:44.452Z,8.10
2023-05-19T20:01:11.399Z,10.90
2023-05-19T20:03:38.327Z,7.78
2023-05-19T20:06:05.140Z,7.05
2023-05-19T20:08:31.835Z,8.50
2023-05-19T20:10:58.544Z,4.95
2023-05-19T20:13:25.252Z,7.95
2023-05-19T20:15:52.009Z,8.45
2023-05-19T20:18:18.860Z,8.70
2023-05-19T20:20:45.726Z,4.97
2023-05-19T20:23:13.270Z,6.47
2023-05-19T20:25:58.505Z,5.55
2023-05-19T20:28:29.558Z,6.05
2023-05-19T20:30:56.403Z,8.23
2023-05-19T20:33:23.138Z,8.25
2023-05-19T20:35:49.851Z,5.80
2023-05-19T20:38:16.594Z,8.13
2023-05-19T20:40:43.382Z,7.80
2023-05-19T20:43:10.151Z,5.70
2023-05-19T20:45:37.113Z,8.48
2023-05-19T20:48:04.604Z,8.45
2023-05-19T20:50:31.936Z,6.32
2023-05-19T20:52:58.876Z,7.47
2023-05-19T20:55:25.754Z,8.98
2023-05-19T20:57:52.438Z,6.07
2023-05-19T21:00:19.166Z,5.60
2023-05-19T21:02:45.953Z,5.20
2023-05-19T21:05:12.746Z,5.97
2023-05-19T21:07:39.510Z,7.72
2023-05-19T21:10:07.102Z,6.55
2023-05-19T21:12:34.266Z,7.78
2023-05-19T21:15:01.872Z,7.47
2023-05-19T21:17:28.677Z,5.25
2023-05-19T21:19:58.006Z,5.55
2023-05-19T21:22:26.590Z,5.47
2023-05-19T21:24:54.087Z,5.97
2023-05-19T21:27:21.128Z,5.82
2023-05-19T21:29:51.580Z,6.88
2023-05-19T21:32:18.397Z,5.53
2023-05-19T21:34:45.190Z,8.10
2023-05-19T21:37:11.976Z,10.27
2023-05-19T21:39:38.731Z,7.82
2023-05-19T21:42:06.351Z,7.55
2023-05-19T21:44:33.154Z,10.32
2023-05-19T21:46:59.916Z,7.50
2023-05-19T21:49:26.597Z,11.90
2023-05-19T21:51:56.418Z,5.30
2023-05-19T21:54:23.166Z,7.10
2023-05-19T21:56:49.830Z,6.43
2023-05-19T21:59:16.540Z,4.70
2023-05-19T22:01:43.385Z,8.52
2023-05-19T22:04:10.452Z,5.97
2023-05-19T22:06:37.224Z,8.02
2023-05-19T22:09:04.334Z,6.93
2023-05-19T22:11:31.402Z,6.93
2023-05-19T22:13:58.200Z,6.75
2023-05-19T22:16:25.234Z,7.95
2023-05-19T22:18:52.069Z,5.53
2023-05-19T22:21:18.953Z,8.40
2023-05-19T22:23:45.967Z,7.82
2023-05-19T22:26:12.826Z,9.60
2023-05-19T22:28:39.665Z,10.73
2023-05-19T22:31:06.610Z,5.45
2023-05-19T22:33:33.386Z,7.80
2023-05-19T22:36:00.135Z,8.57
2023-05-19T22:38:26.870Z,8.27
2023-05-19T22:40:53.613Z,8.90
2023-05-19T22:43:20.335Z,6.32
2023-05-19T22:45:47.116Z,6.55
2023-05-19T22:48:14.025Z,7.18
2023-05-19T22:50:40.764Z,8.50
2023-05-19T22:53:07.444Z,7.10
2023-05-19T22:55:34.345Z,10.15
2023-05-19T22:58:01.344Z,8.20
2023-05-19T23:00:28.073Z,7.35
2023-05-19T23:02:54.872Z,5.93
2023-05-19T23:05:21.596Z,7.28
2023-05-19T23:07:48.313Z,7.05
2023-05-19T23:10:15.086Z,9.40
2023-05-19T23:12:42.389Z,6.90
2023-05-19T23:15:12.335Z,5.78
2023-05-19T23:17:39.028Z,5.15
2023-05-19T23:20:06.407Z,6.57
2023-05-19T23:22:33.144Z,7.65
2023-05-19T23:25:01.822Z,5.75
2023-05-19T23:27:28.591Z,4.70
2023-05-19T23:29:55.414Z,8.77
2023-05-19T23:32:22.156Z,8.13
2023-05-19T23:34:48.948Z,5.63
2023-05-19T23:37:15.990Z,9.05
2023-05-19T23:39:43.178Z,4.00
2023-05-19T23:42:10.039Z,6.03
2023-05-19T23:44:36.813Z,6.30
2023-05-19T23:47:03.616Z,7.95
2023-05-19T23:49:30.476Z,7.22
2023-05-19T23:51:57.197Z,8.57
2023-05-19T23:54:24.231Z,9.05
2023-05-19T23:56:51.174Z,7.20
2023-05-19T23:59:17.862Z,6.88
